Time;durP1;ratioP1;P1;durP2;ratioP2;P2;SDS_P1;SDS_P2;PMS_P1;PMS_P2;Temp;Humidity;BMP_temperature;BMP_pressure;BME280_temperature;BME280_humidity;BME280_pressure;Samples;Min_cycle;Max_cycle;Signal;HPM_P1;HPM_P2
2022/06/06 00:01:18;;;;;;;18.90;13.40;;;19.70;97.30;;;;;;5039696;28;20496;-80
2022/06/06 00:03:44;;;;;;;19.00;13.87;;;19.70;97.30;;;;;;5039300;28;20905;-80
2022/06/06 00:06:12;;;;;;;18.00;13.30;;;19.70;97.30;;;;;;5039324;28;20507;-80
2022/06/06 00:08:38;;;;;;;18.50;12.70;;;19.70;97.30;;;;;;5038948;28;20419;-80
2022/06/06 00:11:04;;;;;;;16.30;12.20;;;19.60;97.30;;;;;;5038287;28;21030;-81
2022/06/06 00:13:33;;;;;;;16.17;11.70;;;19.60;97.30;;;;;;5038232;28;20431;-81
2022/06/06 00:16:00;;;;;;;13.90;11.50;;;19.60;97.30;;;;;;5038208;28;20458;-81
2022/06/06 00:18:26;;;;;;;14.83;10.80;;;19.60;97.30;;;;;;5038996;28;20888;-81
2022/06/06 00:20:52;;;;;;;21.27;12.10;;;19.60;97.30;;;;;;5038551;28;20431;-80
2022/06/06 00:23:17;;;;;;;17.23;10.87;;;19.60;97.30;;;;;;5038788;28;20451;-80
2022/06/06 00:25:43;;;;;;;12.03;9.90;;;19.50;97.30;;;;;;5038790;28;20169;-80
2022/06/06 00:28:08;;;;;;;14.83;9.90;;;19.50;97.30;;;;;;5038767;28;20172;-80
2022/06/06 00:30:34;;;;;;;14.80;9.23;;;19.50;97.30;;;;;;5038953;28;20295;-81
2022/06/06 00:35:43;;;;;;;13.30;9.07;;;19.50;97.30;;;;;;5039827;28;20750;-81
2022/06/06 00:38:09;;;;;;;12.40;7.80;;;19.40;97.30;;;;;;5053940;28;20441;-80
2022/06/06 00:40:35;;;;;;;10.60;8.00;;;19.40;97.30;;;;;;5057474;28;20180;-81
2022/06/06 00:43:03;;;;;;;9.50;7.27;;;19.40;97.30;;;;;;5057953;28;20199;-81
2022/06/06 00:45:36;;;;;;;9.83;6.80;;;19.40;97.30;;;;;;5058431;28;20192;-81
2022/06/06 00:48:17;;;;;;;11.57;6.40;;;19.40;97.30;;;;;;5058668;28;20912;-80
2022/06/06 00:51:05;;;;;;;11.30;5.93;;;19.40;97.30;;;;;;5058208;28;20777;-81
2022/06/06 00:53:51;;;;;;;7.60;5.40;;;19.30;97.30;;;;;;5058486;28;20432;-80
2022/06/06 00:56:39;;;;;;;6.00;4.70;;;19.30;97.30;;;;;;5058537;28;20502;-81
2022/06/06 00:59:21;;;;;;;6.47;4.97;;;19.20;97.30;;;;;;5058604;28;20509;-81
2022/06/06 01:01:49;;;;;;;9.30;5.30;;;19.20;97.30;;;;;;5059248;28;20429;-82
2022/06/06 01:04:18;;;;;;;7.30;4.20;;;19.20;97.30;;;;;;5056369;28;20537;-81
2022/06/06 01:06:47;;;;;;;8.20;6.40;;;19.20;97.30;;;;;;5059308;28;20438;-81
2022/06/06 01:09:15;;;;;;;7.00;4.90;;;19.20;97.30;;;;;;5059125;28;20479;-81
2022/06/06 01:11:45;;;;;;;6.70;4.77;;;19.20;97.30;;;;;;5058825;28;20450;-81
2022/06/06 01:14:14;;;;;;;6.03;4.77;;;19.20;97.30;;;;;;5058359;28;20434;-82
2022/06/06 01:17:00;;;;;;;9.13;4.40;;;19.10;97.30;;;;;;5058517;28;20441;-81
2022/06/06 01:19:36;;;;;;;5.70;4.33;;;19.10;97.30;;;;;;5058779;28;20790;-82
2022/06/06 01:22:40;;;;;;;9.20;4.53;;;19.10;97.30;;;;;;5059049;28;20512;-81
2022/06/06 01:25:26;;;;;;;5.23;4.13;;;19.10;97.30;;;;;;5057641;28;20509;-82
2022/06/06 01:27:58;;;;;;;5.40;4.70;;;19.10;97.30;;;;;;5058421;28;20524;-81
2022/06/06 01:30:29;;;;;;;5.67;4.80;;;19.10;97.30;;;;;;5058747;28;20908;-81
2022/06/06 01:33:01;;;;;;;6.27;4.73;;;19.10;97.30;;;;;;5058508;28;20541;-81
2022/06/06 01:35:37;;;;;;;4.80;4.20;;;19.10;97.30;;;;;;5058426;28;20463;-81
2022/06/06 01:38:04;;;;;;;6.13;4.27;;;19.00;97.30;;;;;;5058081;28;20941;-80
2022/06/06 01:40:39;;;;;;;5.80;4.43;;;19.00;97.30;;;;;;5059256;28;20501;-81
2022/06/06 01:43:13;;;;;;;4.93;4.20;;;19.00;97.30;;;;;;5059701;28;20461;-81
2022/06/06 01:45:44;;;;;;;7.40;4.10;;;19.00;97.30;;;;;;5059078;28;20423;-81
2022/06/06 01:48:21;;;;;;;6.17;4.50;;;19.00;97.30;;;;;;5059192;28;20418;-81
2022/06/06 01:50:47;;;;;;;6.03;4.17;;;19.00;97.30;;;;;;5058743;28;20422;-81
2022/06/06 01:53:18;;;;;;;6.93;4.63;;;19.00;97.30;;;;;;5058524;28;20457;-80
2022/06/06 01:55:46;;;;;;;5.00;3.93;;;19.00;97.30;;;;;;5058357;28;20444;-81
2022/06/06 01:58:21;;;;;;;5.20;3.93;;;18.90;97.30;;;;;;5057189;28;20928;-80
2022/06/06 02:00:47;;;;;;;5.23;4.10;;;18.90;97.30;;;;;;5057465;28;20479;-81
2022/06/06 02:03:13;;;;;;;4.70;3.70;;;18.80;97.30;;;;;;5057669;28;20459;-80
2022/06/06 02:05:39;;;;;;;5.30;3.90;;;18.80;97.30;;;;;;5057213;28;20172;-80
2022/06/06 02:08:06;;;;;;;10.43;6.40;;;18.80;97.30;;;;;;5057622;28;20438;-80
2022/06/06 02:10:32;;;;;;;3.93;3.50;;;18.80;97.30;;;;;;5057856;28;20997;-80
2022/06/06 02:12:58;;;;;;;4.43;4.17;;;18.80;97.30;;;;;;5057869;28;20431;-80
2022/06/06 02:15:24;;;;;;;4.83;3.77;;;18.80;97.30;;;;;;5057607;28;20337;-80
2022/06/06 02:17:51;;;;;;;4.30;3.70;;;18.80;97.30;;;;;;5057348;28;20381;-80
2022/06/06 02:20:20;;;;;;;4.53;3.80;;;18.80;97.30;;;;;;5056914;28;20431;-80
2022/06/06 02:22:45;;;;;;;5.70;3.90;;;18.70;97.30;;;;;;5056945;28;20454;-80
2022/06/06 02:25:12;;;;;;;6.40;3.13;;;18.70;97.30;;;;;;5056974;28;20433;-80
2022/06/06 02:27:39;;;;;;;3.70;3.40;;;18.70;97.30;;;;;;5055838;28;20200;-80
2022/06/06 02:30:18;;;;;;;5.53;3.63;;;18.70;97.30;;;;;;5057395;28;20937;-80
2022/06/06 02:32:43;;;;;;;4.20;3.60;;;18.70;97.30;;;;;;5056260;28;20453;-84
2022/06/06 02:35:13;;;;;;;4.70;3.60;;;18.60;97.30;;;;;;5050183;28;20454;-83
2022/06/06 02:37:39;;;;;;;5.13;3.13;;;18.60;97.30;;;;;;5039595;28;20232;-83
2022/06/06 02:40:08;;;;;;;4.30;3.87;;;18.60;97.30;;;;;;5030179;28;20465;-83
2022/06/06 02:42:33;;;;;;;5.43;3.90;;;18.60;97.30;;;;;;5030315;28;20455;-83
2022/06/06 02:44:59;;;;;;;3.27;3.13;;;18.60;97.30;;;;;;5030378;28;20425;-83
2022/06/06 02:47:24;;;;;;;4.47;3.27;;;18.60;97.30;;;;;;5030032;28;20287;-83
2022/06/06 02:49:50;;;;;;;4.30;3.70;;;18.60;97.30;;;;;;5029805;28;20172;-82
2022/06/06 02:52:16;;;;;;;4.00;3.40;;;18.50;97.30;;;;;;5030095;28;20173;-84
2022/06/06 02:54:41;;;;;;;5.97;3.27;;;18.50;97.30;;;;;;5030595;28;20272;-83
2022/06/06 02:57:07;;;;;;;8.33;2.97;;;18.50;97.30;;;;;;5029833;28;20196;-82
2022/06/06 02:59:34;;;;;;;3.37;3.07;;;18.40;97.30;;;;;;5030542;28;20180;-83
2022/06/06 03:02:04;;;;;;;6.77;3.40;;;18.40;97.30;;;;;;5029894;28;20184;-86
2022/06/06 03:04:30;;;;;;;4.10;2.90;;;18.40;97.30;;;;;;5030348;28;20918;-83
2022/06/06 03:07:09;;;;;;;4.83;4.20;;;18.40;97.30;;;;;;5030312;28;20443;-83
2022/06/06 03:09:46;;;;;;;4.43;2.87;;;18.40;97.30;;;;;;5030366;28;20187;-83
2022/06/06 03:12:47;;;;;;;3.63;3.13;;;18.40;97.30;;;;;;5029932;28;20447;-83
2022/06/06 03:20:46;;;;;;;3.40;2.77;;;18.30;97.30;;;;;;5031763;28;20932;-83
2022/06/06 03:22:34;;;;;;;5.10;3.30;;;18.30;97.30;;;;;;5034281;28;20466;-84
2022/06/06 03:25:24;;;;;;;3.80;3.53;;;18.30;97.30;;;;;;5032042;28;20709;-83
2022/06/06 03:28:01;;;;;;;7.40;3.20;;;18.20;97.30;;;;;;5031726;28;20431;-82
2022/06/06 03:30:51;;;;;;;3.60;3.03;;;18.20;97.30;;;;;;5032446;28;20415;-82
2022/06/06 03:33:35;;;;;;;4.63;3.97;;;18.20;97.30;;;;;;5032249;28;20419;-83
2022/06/06 03:36:28;;;;;;;4.67;3.40;;;18.20;97.30;;;;;;5032602;28;20462;-83
2022/06/06 03:39:00;;;;;;;6.30;3.83;;;18.20;97.30;;;;;;5048881;28;20525;-82
2022/06/06 03:41:55;;;;;;;6.03;3.13;;;18.10;97.30;;;;;;5034112;28;20414;-83
2022/06/06 03:44:37;;;;;;;6.47;3.30;;;18.10;97.30;;;;;;5020545;28;20900;-83
2022/06/06 03:47:18;;;;;;;3.30;2.80;;;18.10;97.30;;;;;;5033756;28;20893;-83
2022/06/06 03:50:11;;;;;;;5.20;3.40;;;18.10;97.30;;;;;;5032562;28;20806;-84
2022/06/06 03:52:50;;;;;;;5.17;3.00;;;18.10;97.30;;;;;;5031882;28;20908;-84
2022/06/06 03:55:53;;;;;;;3.70;2.97;;;18.10;97.30;;;;;;5032080;28;20468;-83
2022/06/06 03:58:21;;;;;;;5.03;3.37;;;18.10;97.30;;;;;;5032339;28;20411;-83
2022/06/06 04:00:47;;;;;;;3.90;3.13;;;18.10;97.30;;;;;;5032715;28;20507;-83
2022/06/06 04:03:15;;;;;;;4.20;3.33;;;18.10;97.30;;;;;;5032620;28;20523;-84
2022/06/06 04:05:42;;;;;;;3.67;2.93;;;18.10;97.30;;;;;;5032517;28;20426;-83
2022/06/06 04:08:09;;;;;;;5.53;3.50;;;18.10;97.30;;;;;;5031941;28;20473;-83
2022/06/06 04:11:00;;;;;;;4.43;3.30;;;18.00;97.30;;;;;;5032260;28;21038;-83
2022/06/06 04:13:36;;;;;;;4.10;3.40;;;18.00;97.30;;;;;;5032038;28;20785;-83
2022/06/06 04:16:24;;;;;;;4.43;3.20;;;18.00;97.30;;;;;;5035381;28;20447;-80
2022/06/06 04:19:12;;;;;;;5.53;3.20;;;17.90;97.30;;;;;;5035681;28;20426;-80
2022/06/06 04:22:26;;;;;;;5.33;3.30;;;17.90;97.30;;;;;;5035059;28;20442;-80
2022/06/06 04:25:24;;;;;;;7.03;3.70;;;17.80;97.30;;;;;;5035050;28;20526;-80
2022/06/06 04:28:13;;;;;;;5.20;3.60;;;17.80;97.30;;;;;;5034455;28;20514;-80
2022/06/06 04:30:58;;;;;;;3.93;3.13;;;17.90;97.30;;;;;;5035454;28;20404;-80
2022/06/06 04:33:36;;;;;;;6.10;3.80;;;17.90;97.30;;;;;;5035069;28;20444;-80
2022/06/06 04:36:16;;;;;;;5.43;3.23;;;17.90;97.30;;;;;;5035185;28;20948;-80
2022/06/06 04:39:04;;;;;;;3.97;3.40;;;17.90;97.30;;;;;;5036841;28;20419;-80
2022/06/06 04:41:38;;;;;;;5.20;3.23;;;18.00;97.30;;;;;;5039148;28;20411;-80
2022/06/06 04:44:31;;;;;;;3.83;3.37;;;18.00;97.30;;;;;;5039884;28;20967;-80
2022/06/06 04:47:04;;;;;;;4.00;3.33;;;17.90;97.30;;;;;;5039045;28;20504;-80
2022/06/06 04:49:31;;;;;;;4.80;3.23;;;17.90;97.30;;;;;;5039134;28;20429;-80
2022/06/06 04:51:59;;;;;;;5.13;3.07;;;17.90;97.30;;;;;;5038655;28;20431;-80
2022/06/06 04:54:25;;;;;;;3.40;3.17;;;17.90;97.30;;;;;;5038703;28;20421;-80
2022/06/06 04:56:53;;;;;;;6.73;3.20;;;17.90;97.30;;;;;;5038451;28;20726;-81
2022/06/06 04:59:21;;;;;;;5.30;3.80;;;17.90;97.30;;;;;;5038966;28;20427;-80
2022/06/06 05:01:58;;;;;;;5.40;3.27;;;17.90;97.30;;;;;;5038084;28;20454;-80
2022/06/06 05:04:25;;;;;;;9.23;2.87;;;18.00;97.30;;;;;;5038303;28;20525;-80
2022/06/06 05:07:06;;;;;;;4.20;2.80;;;18.00;97.30;;;;;;5037863;28;20442;-80
2022/06/06 05:09:55;;;;;;;4.13;2.80;;;18.10;97.30;;;;;;5037478;28;20423;-80
2022/06/06 05:13:06;;;;;;;3.53;2.83;;;18.10;97.30;;;;;;5038795;28;20451;-80
2022/06/06 05:16:02;;;;;;;3.43;2.87;;;18.10;97.30;;;;;;5037160;28;20943;-80
2022/06/06 05:18:28;;;;;;;4.60;3.87;;;18.20;97.30;;;;;;5037061;28;20430;-80
2022/06/06 05:22:16;;;;;;;5.20;3.50;;;18.30;97.30;;;;;;5038604;28;20415;-80
2022/06/06 05:24:44;;;;;;;5.33;3.23;;;18.30;97.30;;;;;;5030834;28;20275;-80
2022/06/06 05:27:25;;;;;;;3.17;2.80;;;18.40;97.30;;;;;;5037208;28;20452;-80
2022/06/06 05:30:05;;;;;;;3.60;3.10;;;18.40;97.30;;;;;;5038574;28;20789;-80
2022/06/06 05:33:04;;;;;;;5.10;3.10;;;18.50;97.30;;;;;;5037462;28;20537;-80
2022/06/06 05:36:14;;;;;;;5.87;3.07;;;18.50;97.30;;;;;;5037230;28;20415;-80
2022/06/06 05:39:24;;;;;;;4.47;2.97;;;18.60;97.30;;;;;;4981723;28;20441;-80
2022/06/06 05:42:14;;;;;;;3.33;2.83;;;18.60;97.30;;;;;;5037924;28;20419;-80
2022/06/06 05:44:57;;;;;;;4.60;3.17;;;18.70;97.30;;;;;;5037619;28;20427;-80
2022/06/06 05:47:45;;;;;;;5.73;2.50;;;18.80;97.30;;;;;;5037657;28;20459;-80
2022/06/06 05:50:24;;;;;;;2.80;2.47;;;18.80;97.30;;;;;;5035954;28;20408;-80
2022/06/06 05:53:16;;;;;;;3.53;2.83;;;18.90;97.30;;;;;;5036678;28;20434;-80
2022/06/06 05:56:15;;;;;;;3.03;2.70;;;18.90;97.30;;;;;;5037569;28;20411;-80
2022/06/06 05:59:11;;;;;;;6.97;2.80;;;19.00;97.30;;;;;;5037145;28;20410;-80
2022/06/06 06:02:07;;;;;;;3.33;2.60;;;19.00;97.30;;;;;;5037905;28;20442;-80
2022/06/06 06:04:41;;;;;;;3.60;2.97;;;19.10;97.30;;;;;;5037983;28;20478;-80
2022/06/06 06:07:25;;;;;;;4.00;2.70;;;19.10;97.30;;;;;;5037801;28;20467;-80
2022/06/06 06:10:29;;;;;;;4.53;3.40;;;19.20;97.30;;;;;;5036986;28;20905;-80
2022/06/06 06:12:55;;;;;;;3.90;2.87;;;19.20;97.30;;;;;;5038287;28;20449;-80
2022/06/06 06:15:41;;;;;;;5.70;2.73;;;19.30;97.30;;;;;;5037431;28;20424;-80
2022/06/06 06:18:15;;;;;;;3.73;3.00;;;19.40;97.30;;;;;;5037087;28;20629;-80
2022/06/06 06:20:46;;;;;;;3.40;2.60;;;19.40;97.30;;;;;;5036818;28;20924;-80
2022/06/06 06:23:18;;;;;;;3.20;2.30;;;19.40;97.30;;;;;;5035940;28;20501;-80
2022/06/06 06:25:46;;;;;;;3.47;3.07;;;19.50;97.30;;;;;;5036569;28;20733;-80
2022/06/06 06:28:13;;;;;;;4.63;2.50;;;19.50;97.30;;;;;;5037192;28;20422;-80
2022/06/06 06:31:04;;;;;;;4.40;2.70;;;19.60;97.30;;;;;;5037354;28;20475;-80
2022/06/06 06:33:42;;;;;;;3.93;2.73;;;19.60;97.30;;;;;;5037875;28;20917;-80
2022/06/06 06:36:42;;;;;;;4.70;3.13;;;19.70;97.30;;;;;;5037545;28;20461;-80
2022/06/06 06:39:31;;;;;;;3.50;2.43;;;19.80;97.30;;;;;;5036120;28;20411;-80
2022/06/06 06:42:00;;;;;;;5.40;2.80;;;19.80;97.30;;;;;;5014560;28;20477;-80
2022/06/06 06:44:34;;;;;;;3.13;2.70;;;19.90;97.30;;;;;;5035840;28;20482;-80
2022/06/06 06:47:19;;;;;;;2.47;2.33;;;19.90;97.30;;;;;;5035940;28;20806;-81
2022/06/06 06:49:51;;;;;;;3.30;2.63;;;20.00;97.30;;;;;;5035943;28;20411;-80
2022/06/06 06:52:49;;;;;;;4.30;2.80;;;20.00;97.30;;;;;;5035659;28;20932;-81
2022/06/06 06:55:24;;;;;;;2.40;2.00;;;20.10;97.30;;;;;;5035672;28;20415;-80
2022/06/06 06:58:16;;;;;;;3.47;3.20;;;20.20;97.30;;;;;;5035833;28;20438;-80
2022/06/06 07:00:51;;;;;;;5.10;2.70;;;20.20;97.30;;;;;;5036921;28;20957;-80
2022/06/06 07:09:34;;;;;;;5.73;2.43;;;20.50;97.30;;;;;;5038658;28;20394;-81
2022/06/06 07:12:27;;;;;;;5.83;2.87;;;20.70;97.30;;;;;;5038042;28;20466;-80
2022/06/06 07:15:30;;;;;;;3.17;2.70;;;20.70;97.30;;;;;;5038172;28;20412;-80
2022/06/06 07:18:00;;;;;;;4.10;2.63;;;20.80;97.30;;;;;;5037106;28;20438;-80
2022/06/06 07:20:28;;;;;;;5.77;3.90;;;20.90;97.30;;;;;;5038189;28;20400;-82
2022/06/06 07:23:02;;;;;;;4.43;2.70;;;20.90;97.30;;;;;;5036651;28;20492;-81
2022/06/06 07:25:47;;;;;;;3.47;2.70;;;21.00;97.30;;;;;;5037036;28;20407;-81
2022/06/06 07:28:21;;;;;;;3.53;2.30;;;21.00;97.30;;;;;;5036691;28;20906;-80
2022/06/06 07:31:05;;;;;;;3.83;3.03;;;21.00;96.50;;;;;;5035929;28;20421;-80
2022/06/06 07:34:02;;;;;;;3.80;2.33;;;21.10;96.70;;;;;;5037113;28;20972;-80
2022/06/06 07:36:57;;;;;;;5.10;2.93;;;21.20;96.50;;;;;;5040778;28;20449;-84
2022/06/06 07:39:56;;;;;;;3.20;2.80;;;21.30;95.90;;;;;;5052056;28;20456;-83
2022/06/06 07:42:51;;;;;;;3.97;2.90;;;21.40;95.80;;;;;;5070777;28;20408;-82
2022/06/06 07:45:27;;;;;;;2.70;2.40;;;21.50;95.30;;;;;;5067903;28;20424;-82
2022/06/06 07:48:30;;;;;;;2.60;2.43;;;21.50;95.50;;;;;;5046595;28;20445;-83
2022/06/06 07:51:20;;;;;;;3.60;2.90;;;21.60;95.40;;;;;;5049555;28;20509;-84
2022/06/06 07:54:22;;;;;;;3.20;2.80;;;21.60;95.00;;;;;;5048376;28;20429;-84
2022/06/06 07:57:01;;;;;;;4.80;3.20;;;21.60;95.30;;;;;;5046048;28;20442;-83
2022/06/06 07:59:54;;;;;;;5.67;2.70;;;21.60;96.00;;;;;;5041827;28;20419;-83
2022/06/06 08:02:23;;;;;;;3.80;2.80;;;21.60;95.50;;;;;;5032306;28;20423;-83
2022/06/06 08:05:18;;;;;;;3.60;2.50;;;21.60;96.10;;;;;;5040137;28;20407;-84
2022/06/06 08:08:12;;;;;;;3.57;2.60;;;21.70;95.80;;;;;;5038237;28;20579;-82
2022/06/06 08:10:43;;;;;;;3.70;2.43;;;21.70;95.40;;;;;;5036972;28;20454;-83
2022/06/06 08:13:43;;;;;;;3.30;2.60;;;21.70;94.20;;;;;;5046488;28;20423;-83
2022/06/06 08:16:36;;;;;;;5.27;3.37;;;21.70;94.70;;;;;;5036645;28;20485;-84
2022/06/06 08:19:15;;;;;;;3.30;3.17;;;21.80;94.60;;;;;;5035315;28;20430;-82
2022/06/06 08:21:43;;;;;;;4.40;3.07;;;21.90;94.30;;;;;;5047576;28;20419;-83
2022/06/06 08:24:22;;;;;;;4.93;2.87;;;21.90;94.70;;;;;;5046217;28;20456;-83
2022/06/06 08:26:48;;;;;;;2.80;2.70;;;22.00;94.50;;;;;;5044691;28;20462;-82
2022/06/06 08:29:16;;;;;;;2.90;2.63;;;22.00;94.00;;;;;;5053651;28;20534;-82
2022/06/06 08:31:44;;;;;;;6.43;2.63;;;22.00;93.80;;;;;;5049582;28;21065;-83
2022/06/06 08:34:12;;;;;;;5.03;3.27;;;22.10;94.00;;;;;;5055271;28;20842;-83
2022/06/06 08:36:57;;;;;;;4.33;2.80;;;22.20;93.80;;;;;;5049124;28;20478;-83
2022/06/06 08:39:29;;;;;;;4.97;3.07;;;22.30;93.70;;;;;;5054481;28;20421;-82
2022/06/06 08:42:11;;;;;;;4.00;3.00;;;22.40;93.50;;;;;;5055602;28;20429;-81
2022/06/06 08:45:14;;;;;;;4.73;2.97;;;22.30;92.40;;;;;;5053746;28;20418;-81
2022/06/06 08:47:56;;;;;;;3.20;2.67;;;22.30;92.20;;;;;;5071324;28;20514;-82
2022/06/06 08:50:46;;;;;;;3.30;2.43;;;22.30;91.60;;;;;;5056738;28;20421;-82
2022/06/06 08:53:50;;;;;;;3.30;2.80;;;22.30;92.10;;;;;;5054979;28;20429;-82
2022/06/06 08:56:53;;;;;;;4.13;3.03;;;22.20;91.60;;;;;;5066737;28;20491;-82
2022/06/06 08:59:39;;;;;;;4.80;2.57;;;22.30;91.90;;;;;;5055322;28;20422;-81
2022/06/06 09:02:24;;;;;;;5.20;3.30;;;22.40;92.90;;;;;;5054950;28;20545;-82
2022/06/06 09:05:05;;;;;;;6.27;3.10;;;22.50;92.60;;;;;;5051917;28;20592;-82
2022/06/06 09:07:54;;;;;;;5.23;2.80;;;22.60;92.30;;;;;;5057273;28;20571;-82
2022/06/06 09:10:39;;;;;;;4.90;3.10;;;22.70;92.00;;;;;;5048395;28;20811;-82
2022/06/06 09:13:11;;;;;;;3.70;2.90;;;22.90;92.20;;;;;;5047867;28;20760;-82
2022/06/06 09:16:08;;;;;;;4.30;2.47;;;23.00;91.40;;;;;;5048699;28;20436;-82
2022/06/06 09:19:02;;;;;;;4.20;2.40;;;23.10;90.40;;;;;;5050488;28;20979;-83
2022/06/06 09:21:53;;;;;;;4.17;2.60;;;23.10;89.70;;;;;;5049303;28;20423;-84
2022/06/06 09:24:44;;;;;;;3.77;2.77;;;23.10;89.80;;;;;;5041692;28;20907;-83
2022/06/06 09:27:27;;;;;;;3.80;2.50;;;23.00;90.20;;;;;;5035400;28;21025;-84
2022/06/06 09:30:41;;;;;;;4.10;2.37;;;23.10;90.30;;;;;;5049403;28;20418;-87
2022/06/06 09:33:34;;;;;;;4.17;2.40;;;23.30;89.20;;;;;;5046233;28;20418;-83
2022/06/06 09:36:24;;;;;;;3.67;2.50;;;23.50;89.20;;;;;;5041691;28;20439;-83
2022/06/06 09:39:13;;;;;;;2.60;2.13;;;23.70;88.70;;;;;;5051866;28;20427;-83
2022/06/06 09:42:15;;;;;;;4.77;2.60;;;23.80;88.80;;;;;;5053460;28;20547;-84
2022/06/06 09:44:57;;;;;;;3.60;2.70;;;23.90;87.70;;;;;;5039802;28;20485;-84
2022/06/06 09:47:44;;;;;;;3.03;2.20;;;23.90;87.70;;;;;;5038146;28;20487;-83
2022/06/06 09:50:22;;;;;;;2.93;2.73;;;23.80;88.20;;;;;;5051535;28;20414;-83
2022/06/06 09:53:02;;;;;;;2.50;2.30;;;23.70;87.70;;;;;;5051022;28;20479;-83
2022/06/06 09:59:04;;;;;;;3.23;2.30;;;23.60;88.90;;;;;;5052811;28;20612;-83
2022/06/06 10:01:58;;;;;;;2.57;2.30;;;23.70;88.90;;;;;;5055039;28;20427;-83
2022/06/06 10:04:45;;;;;;;3.97;2.27;;;23.80;88.20;;;;;;5054111;28;21054;-84
2022/06/06 10:07:19;;;;;;;3.83;2.33;;;23.80;87.20;;;;;;5052060;28;20815;-83
2022/06/06 10:09:48;;;;;;;2.80;2.43;;;23.90;87.70;;;;;;5052269;28;20889;-84
2022/06/06 10:12:16;;;;;;;3.23;2.23;;;23.90;87.40;;;;;;5050626;28;20537;-84
2022/06/06 10:15:04;;;;;;;3.33;2.90;;;23.90;87.60;;;;;;5051390;28;20419;-83
2022/06/06 10:17:29;;;;;;;2.30;2.20;;;23.90;86.50;;;;;;5050403;28;20871;-83
2022/06/06 10:20:28;;;;;;;4.03;2.77;;;23.80;87.10;;;;;;5042397;28;20414;-83
2022/06/06 10:23:12;;;;;;;2.70;2.33;;;23.70;86.50;;;;;;5049272;28;20199;-84
2022/06/06 10:25:38;;;;;;;4.60;2.30;;;23.70;86.60;;;;;;5037485;28;20434;-84
2022/06/06 10:28:18;;;;;;;5.47;2.77;;;23.80;87.80;;;;;;5049808;28;20406;-84
2022/06/06 10:30:59;;;;;;;4.63;2.60;;;24.00;88.00;;;;;;5050602;28;20202;-84
2022/06/06 10:33:35;;;;;;;3.30;2.30;;;24.20;88.80;;;;;;5050455;28;20422;-83
2022/06/06 10:36:16;;;;;;;2.67;2.47;;;24.30;88.20;;;;;;5036582;28;20461;-83
2022/06/06 10:39:05;;;;;;;3.40;2.00;;;24.50;87.80;;;;;;5047623;28;20920;-84
2022/06/06 10:41:50;;;;;;;2.40;2.27;;;24.60;83.90;;;;;;5044850;28;20938;-85
2022/06/06 10:44:16;;;;;;;3.30;2.80;;;24.90;84.90;;;;;;5050447;28;20842;-86
2022/06/06 10:47:00;;;;;;;3.30;2.33;;;25.00;83.90;;;;;;5050304;28;20445;-85
2022/06/06 10:49:53;;;;;;;2.63;2.13;;;25.20;83.00;;;;;;5046226;28;20188;-85
2022/06/06 10:52:32;;;;;;;5.07;2.23;;;25.40;83.20;;;;;;5070320;28;20940;-85
2022/06/06 10:55:23;;;;;;;3.50;2.60;;;25.50;82.40;;;;;;5059364;28;20415;-85
2022/06/06 10:58:13;;;;;;;3.90;2.60;;;25.60;83.10;;;;;;5050166;28;20446;-84
2022/06/06 11:00:51;;;;;;;4.67;2.20;;;25.80;81.90;;;;;;5048259;28;20419;-84
2022/06/06 11:03:49;;;;;;;4.80;2.30;;;25.90;81.30;;;;;;5063431;28;20951;-85
2022/06/06 11:06:39;;;;;;;4.87;2.53;;;25.80;80.60;;;;;;5046693;28;20442;-84
2022/06/06 11:09:17;;;;;;;3.37;2.67;;;25.60;80.60;;;;;;5046175;28;20422;-83
2022/06/06 11:12:01;;;;;;;6.13;2.40;;;25.50;82.70;;;;;;5049825;28;20460;-85
2022/06/06 11:14:34;;;;;;;2.97;2.13;;;25.40;81.30;;;;;;5063275;28;20453;-84
2022/06/06 11:17:00;;;;;;;5.30;2.30;;;25.60;82.10;;;;;;5038704;28;20461;-85
2022/06/06 11:20:03;;;;;;;4.20;2.10;;;25.70;82.40;;;;;;5041015;28;20438;-84
2022/06/06 11:22:54;;;;;;;3.80;2.10;;;26.00;82.10;;;;;;5047807;28;20673;-85
2022/06/06 11:25:22;;;;;;;2.70;2.20;;;26.00;80.70;;;;;;5040281;28;20416;-84
2022/06/06 11:28:14;;;;;;;2.90;2.30;;;26.00;81.40;;;;;;5047712;28;20438;-86
2022/06/06 11:30:56;;;;;;;3.10;2.27;;;26.00;81.50;;;;;;5041348;28;20776;-85
2022/06/06 11:33:53;;;;;;;2.37;2.03;;;26.20;80.00;;;;;;5049454;28;20422;-85
2022/06/06 11:36:40;;;;;;;3.40;2.10;;;26.30;80.50;;;;;;5044998;28;20504;-85
2022/06/06 11:39:27;;;;;;;3.03;2.13;;;26.40;80.10;;;;;;5044417;28;20442;-84
2022/06/06 11:41:52;;;;;;;2.70;2.00;;;26.40;79.80;;;;;;5047747;28;20418;-84
2022/06/06 11:44:34;;;;;;;3.90;2.40;;;26.30;79.80;;;;;;5046414;28;20489;-85
2022/06/06 11:47:25;;;;;;;2.70;1.97;;;26.10;79.70;;;;;;5037678;28;20192;-85
2022/06/06 11:50:18;;;;;;;3.10;2.17;;;25.90;79.90;;;;;;5046292;28;20434;-83
2022/06/06 11:53:02;;;;;;;5.03;2.10;;;25.70;80.50;;;;;;5047036;28;20513;-84
2022/06/06 11:55:32;;;;;;;2.43;1.80;;;25.80;81.60;;;;;;5050320;28;20422;-83
2022/06/06 11:58:29;;;;;;;2.37;1.93;;;25.90;81.40;;;;;;5045373;28;20493;-84
2022/06/06 12:01:22;;;;;;;2.40;1.80;;;25.90;81.40;;;;;;5046001;28;20507;-84
2022/06/06 12:04:09;;;;;;;2.37;2.17;;;25.80;80.90;;;;;;5048707;28;20454;-84
2022/06/06 12:07:09;;;;;;;2.43;1.83;;;25.90;81.70;;;;;;5059935;28;20454;-85
2022/06/06 12:10:06;;;;;;;3.13;2.07;;;26.00;80.00;;;;;;5037327;28;20438;-83
2022/06/06 12:13:02;;;;;;;6.20;2.40;;;25.90;79.40;;;;;;5046955;28;21003;-85
2022/06/06 12:15:40;;;;;;;3.00;2.23;;;25.80;78.80;;;;;;5032772;28;20917;-84
2022/06/06 12:18:23;;;;;;;5.93;2.20;;;25.70;79.40;;;;;;5041552;28;20431;-84
2022/06/06 12:21:04;;;;;;;7.63;2.40;;;25.70;79.70;;;;;;5049483;28;20418;-84
2022/06/06 12:23:52;;;;;;;2.53;2.13;;;25.90;79.10;;;;;;5042494;28;20975;-84
2022/06/06 12:26:45;;;;;;;1.90;1.80;;;26.00;78.60;;;;;;5033413;28;20453;-86
2022/06/06 12:29:39;;;;;;;3.73;2.40;;;26.10;77.00;;;;;;5038845;28;20792;-84
2022/06/06 12:32:27;;;;;;;3.00;2.00;;;26.30;77.50;;;;;;5036809;28;20419;-84
2022/06/06 12:35:01;;;;;;;2.13;1.80;;;26.40;77.60;;;;;;5047664;28;20985;-85
2022/06/06 12:37:32;;;;;;;3.43;1.80;;;26.50;77.80;;;;;;5049479;28;20818;-86
2022/06/06 12:40:34;;;;;;;4.37;2.43;;;26.40;76.80;;;;;;5050108;28;20422;-84
2022/06/06 12:43:35;;;;;;;2.70;1.90;;;26.30;76.80;;;;;;5045255;28;20461;-83
2022/06/06 12:46:28;;;;;;;5.40;1.90;;;26.40;77.20;;;;;;5039248;28;20453;-83
2022/06/06 12:49:14;;;;;;;2.80;2.00;;;26.60;77.50;;;;;;5045740;28;20429;-82
2022/06/06 12:52:18;;;;;;;3.07;2.33;;;26.80;77.90;;;;;;5044362;28;20517;-81
2022/06/06 12:57:50;;;;;;;2.37;2.10;;;27.10;76.00;;;;;;5035917;28;20841;-84
2022/06/06 13:01:37;;;;;;;1.90;1.90;;;26.90;76.50;;;;;;5043835;28;20418;-83
2022/06/06 13:03:25;;;;;;;7.60;1.80;;;26.80;76.70;;;;;;5053288;28;20458;-82
2022/06/06 13:05:57;;;;;;;2.00;1.63;;;26.70;77.10;;;;;;5052470;28;20471;-84
2022/06/06 13:08:32;;;;;;;2.47;2.03;;;26.40;76.10;;;;;;5047917;28;20454;-83
2022/06/06 13:11:35;;;;;;;4.93;2.27;;;26.20;76.30;;;;;;5039231;28;20892;-82
2022/06/06 13:14:19;;;;;;;4.97;2.27;;;26.10;76.50;;;;;;5048871;28;20479;-82
2022/06/06 13:17:08;;;;;;;2.93;2.13;;;25.90;76.80;;;;;;5053854;28;20470;-84
2022/06/06 13:20:15;;;;;;;3.43;1.90;;;25.60;76.90;;;;;;5045116;28;21056;-82
2022/06/06 13:23:11;;;;;;;5.73;1.97;;;25.50;76.90;;;;;;5041432;28;20413;-82
2022/06/06 13:25:46;;;;;;;2.93;1.97;;;25.40;77.20;;;;;;5038604;28;20422;-82
2022/06/06 13:28:19;;;;;;;2.57;2.20;;;25.30;77.10;;;;;;5045735;28;20424;-82
2022/06/06 13:30:47;;;;;;;2.70;1.90;;;25.20;77.60;;;;;;5038937;28;20415;-82
2022/06/06 13:33:51;;;;;;;2.03;1.90;;;25.10;77.90;;;;;;5061950;28;20489;-81
2022/06/06 13:36:53;;;;;;;1.97;1.73;;;25.00;78.10;;;;;;5048294;28;20829;-82
2022/06/06 13:39:44;;;;;;;3.47;2.10;;;24.90;78.60;;;;;;5036850;28;20430;-83
2022/06/06 13:42:37;;;;;;;3.47;2.40;;;24.70;79.30;;;;;;5058301;28;20419;-82
2022/06/06 13:45:18;;;;;;;3.13;2.07;;;24.60;79.60;;;;;;5048489;28;20470;-82
2022/06/06 13:48:13;;;;;;;3.13;2.23;;;24.60;80.00;;;;;;5041786;28;20818;-82
2022/06/06 13:50:58;;;;;;;2.47;2.10;;;24.50;80.60;;;;;;5048875;28;20561;-83
2022/06/06 13:53:39;;;;;;;2.97;2.10;;;24.40;80.40;;;;;;5038333;28;20925;-82
2022/06/06 13:56:38;;;;;;;4.20;2.30;;;24.20;80.90;;;;;;5064728;28;20449;-82
2022/06/06 13:59:26;;;;;;;3.23;2.40;;;23.90;84.80;;;;;;5051985;28;20418;-83
2022/06/06 14:02:16;;;;;;;3.40;2.67;;;23.60;85.40;;;;;;5032022;28;20415;-82
2022/06/06 14:05:01;;;;;;;4.00;2.40;;;23.30;86.60;;;;;;5043451;28;20454;-82
2022/06/06 14:07:51;;;;;;;3.60;2.60;;;22.90;87.70;;;;;;5047298;28;20469;-84
2022/06/06 14:10:19;;;;;;;5.63;2.80;;;22.60;89.30;;;;;;5051897;28;20462;-84
2022/06/06 14:13:15;;;;;;;5.83;2.63;;;22.30;90.60;;;;;;5053125;28;20430;-84
2022/06/06 14:15:44;;;;;;;5.03;2.50;;;22.10;91.80;;;;;;5044130;28;20419;-82
2022/06/06 14:18:17;;;;;;;4.20;2.90;;;21.90;92.50;;;;;;5046266;28;20419;-82